KGGW/GGW METAR and TAF weather

Enter ICAO airport designator
Station Type Date Time Source
KGGW METAR 2022/06/28 08:53 UTC NOAA

KGGW 280853Z AUTO 09009KT 10SM CLR 14/08 A3008 RMK AO2 SLP178 T01440078 57003


Station Type Date Time Source
KGGW Decoded METAR 2022/06/28 08:53 UTC NOAA

GLASGOW INTERNATIONAL AIRPORT , MT, United States (KGGW) 48-13N 106-37W 693M
Jun 28, 2022 - 04:53 AM EDT / 2022.06.28 0853 UTC
Wind: from the E (090 degrees) at 10 MPH (9 KT):0
Visibility: 10 mile(s):0
Sky conditions: clear
Temperature: 57.9 F (14.4 C)
Dew Point: 46.0 F (7.8 C)
Relative Humidity: 64%
Pressure (altimeter): 30.08 in. Hg (1018 hPa)
Pressure tendency: 0.01 inches (0.3 hPa) lower than three hours ago
ob: KGGW 280853Z AUTO 09009KT 10SM CLR 14/08 A3008 RMK AO2 SLP178 T01440078 57003
cycle: 9

Station Type Date Time Source
KGGW TAF 2022/06/28 06:24 UTC NOAA

TAF KGGW 280522Z 2806/2906 09012KT P6SM SCT150
FM281400 09015G23KT P6SM SKC
FM290000 12017G26KT P6SM BKN100

Example: see airport list